sensor_id;sensor_type;location;lat;lon;timestamp;P1;durP1;ratioP1;P2;durP2;ratioP2
66189;SDS011;52992;52.084;5.412;2023-03-14T00:01:29;12.13;;;9.83;;
66189;SDS011;52992;52.084;5.412;2023-03-14T00:03:55;11.20;;;10.20;;
66189;SDS011;52992;52.084;5.412;2023-03-14T00:06:22;12.47;;;9.93;;
66189;SDS011;52992;52.084;5.412;2023-03-14T00:08:49;14.17;;;10.20;;
66189;SDS011;52992;52.084;5.412;2023-03-14T00:11:18;13.10;;;9.30;;
66189;SDS011;52992;52.084;5.412;2023-03-14T00:13:47;13.63;;;9.07;;
66189;SDS011;52992;52.084;5.412;2023-03-14T00:16:14;11.97;;;8.83;;
66189;SDS011;52992;52.084;5.412;2023-03-14T00:18:41;15.00;;;9.30;;
66189;SDS011;52992;52.084;5.412;2023-03-14T00:21:08;15.40;;;8.90;;
66189;SDS011;52992;52.084;5.412;2023-03-14T00:23:38;15.37;;;8.40;;
66189;SDS011;52992;52.084;5.412;2023-03-14T00:26:09;15.80;;;8.73;;
66189;SDS011;52992;52.084;5.412;2023-03-14T00:28:42;15.20;;;9.00;;
66189;SDS011;52992;52.084;5.412;2023-03-14T00:31:10;13.33;;;8.67;;
66189;SDS011;52992;52.084;5.412;2023-03-14T00:33:41;9.07;;;8.17;;
66189;SDS011;52992;52.084;5.412;2023-03-14T00:36:09;8.97;;;8.00;;
66189;SDS011;52992;52.084;5.412;2023-03-14T00:38:42;8.73;;;7.97;;
66189;SDS011;52992;52.084;5.412;2023-03-14T00:41:11;10.20;;;7.90;;
66189;SDS011;52992;52.084;5.412;2023-03-14T00:43:40;8.97;;;8.00;;
66189;SDS011;52992;52.084;5.412;2023-03-14T00:46:07;8.97;;;8.13;;
66189;SDS011;52992;52.084;5.412;2023-03-14T00:48:35;9.23;;;8.27;;
66189;SDS011;52992;52.084;5.412;2023-03-14T00:51:05;12.77;;;8.73;;
66189;SDS011;52992;52.084;5.412;2023-03-14T00:53:35;14.00;;;8.07;;
66189;SDS011;52992;52.084;5.412;2023-03-14T00:56:03;11.20;;;7.97;;
66189;SDS011;52992;52.084;5.412;2023-03-14T00:58:32;10.50;;;8.07;;
66189;SDS011;52992;52.084;5.412;2023-03-14T01:00:59;8.73;;;7.83;;
66189;SDS011;52992;52.084;5.412;2023-03-14T01:03:31;8.03;;;7.33;;
66189;SDS011;52992;52.084;5.412;2023-03-14T01:06:10;8.23;;;7.73;;
66189;SDS011;52992;52.084;5.412;2023-03-14T01:08:41;9.57;;;7.47;;
66189;SDS011;52992;52.084;5.412;2023-03-14T01:11:10;8.80;;;7.97;;
66189;SDS011;52992;52.084;5.412;2023-03-14T01:13:39;12.20;;;8.50;;
66189;SDS011;52992;52.084;5.412;2023-03-14T01:16:08;7.30;;;6.77;;
66189;SDS011;52992;52.084;5.412;2023-03-14T01:18:37;9.83;;;8.07;;
66189;SDS011;52992;52.084;5.412;2023-03-14T01:21:09;7.43;;;6.93;;
66189;SDS011;52992;52.084;5.412;2023-03-14T01:23:52;7.63;;;6.80;;
66189;SDS011;52992;52.084;5.412;2023-03-14T01:26:20;8.10;;;6.77;;
66189;SDS011;52992;52.084;5.412;2023-03-14T01:28:50;7.13;;;6.57;;
66189;SDS011;52992;52.084;5.412;2023-03-14T01:31:18;7.30;;;6.70;;
66189;SDS011;52992;52.084;5.412;2023-03-14T01:33:45;8.27;;;6.60;;
66189;SDS011;52992;52.084;5.412;2023-03-14T01:36:13;7.37;;;6.70;;
66189;SDS011;52992;52.084;5.412;2023-03-14T01:38:41;7.60;;;6.90;;
66189;SDS011;52992;52.084;5.412;2023-03-14T01:41:15;6.87;;;6.17;;
66189;SDS011;52992;52.084;5.412;2023-03-14T01:43:52;6.80;;;6.00;;
66189;SDS011;52992;52.084;5.412;2023-03-14T01:46:24;7.63;;;6.87;;
66189;SDS011;52992;52.084;5.412;2023-03-14T01:48:56;6.67;;;6.13;;
66189;SDS011;52992;52.084;5.412;2023-03-14T01:51:34;7.80;;;6.60;;
66189;SDS011;52992;52.084;5.412;2023-03-14T01:54:11;7.43;;;6.70;;
66189;SDS011;52992;52.084;5.412;2023-03-14T01:56:44;9.83;;;5.90;;
66189;SDS011;52992;52.084;5.412;2023-03-14T01:59:16;12.43;;;7.10;;
66189;SDS011;52992;52.084;5.412;2023-03-14T02:01:44;11.10;;;7.00;;
66189;SDS011;52992;52.084;5.412;2023-03-14T02:04:14;11.83;;;6.53;;
66189;SDS011;52992;52.084;5.412;2023-03-14T02:06:57;8.43;;;7.50;;
66189;SDS011;52992;52.084;5.412;2023-03-14T02:09:32;9.60;;;7.20;;
66189;SDS011;52992;52.084;5.412;2023-03-14T02:11:59;7.43;;;6.83;;
66189;SDS011;52992;52.084;5.412;2023-03-14T02:14:49;8.13;;;6.43;;
66189;SDS011;52992;52.084;5.412;2023-03-14T02:17:45;7.47;;;6.90;;
66189;SDS011;52992;52.084;5.412;2023-03-14T02:23:00;12.47;;;6.67;;
66189;SDS011;52992;52.084;5.412;2023-03-14T02:25:43;12.20;;;6.90;;
66189;SDS011;52992;52.084;5.412;2023-03-14T02:28:17;9.67;;;7.50;;
66189;SDS011;52992;52.084;5.412;2023-03-14T02:30:46;9.03;;;8.17;;
66189;SDS011;52992;52.084;5.412;2023-03-14T02:33:14;10.17;;;7.20;;
66189;SDS011;52992;52.084;5.412;2023-03-14T02:35:52;7.90;;;7.30;;
66189;SDS011;52992;52.084;5.412;2023-03-14T02:38:31;8.27;;;7.60;;
66189;SDS011;52992;52.084;5.412;2023-03-14T02:41:04;8.43;;;7.90;;
66189;SDS011;52992;52.084;5.412;2023-03-14T02:43:36;8.90;;;7.70;;
66189;SDS011;52992;52.084;5.412;2023-03-14T02:46:07;8.60;;;7.70;;
66189;SDS011;52992;52.084;5.412;2023-03-14T02:48:40;7.97;;;7.47;;
66189;SDS011;52992;52.084;5.412;2023-03-14T02:51:13;10.23;;;7.53;;
66189;SDS011;52992;52.084;5.412;2023-03-14T02:53:42;8.07;;;7.60;;
66189;SDS011;52992;52.084;5.412;2023-03-14T02:56:11;8.63;;;7.80;;
66189;SDS011;52992;52.084;5.412;2023-03-14T02:58:38;8.67;;;7.83;;
66189;SDS011;52992;52.084;5.412;2023-03-14T03:01:24;9.13;;;8.33;;
66189;SDS011;52992;52.084;5.412;2023-03-14T03:03:51;9.27;;;8.17;;
66189;SDS011;52992;52.084;5.412;2023-03-14T03:06:18;9.53;;;7.90;;
66189;SDS011;52992;52.084;5.412;2023-03-14T03:08:45;8.10;;;7.33;;
66189;SDS011;52992;52.084;5.412;2023-03-14T03:11:12;7.67;;;7.07;;
66189;SDS011;52992;52.084;5.412;2023-03-14T03:13:39;8.47;;;7.73;;
66189;SDS011;52992;52.084;5.412;2023-03-14T03:16:07;8.93;;;7.40;;
66189;SDS011;52992;52.084;5.412;2023-03-14T03:18:34;8.37;;;7.67;;
66189;SDS011;52992;52.084;5.412;2023-03-14T03:21:02;8.90;;;6.90;;
66189;SDS011;52992;52.084;5.412;2023-03-14T03:23:29;10.00;;;7.47;;
66189;SDS011;52992;52.084;5.412;2023-03-14T03:25:56;9.80;;;7.37;;
66189;SDS011;52992;52.084;5.412;2023-03-14T03:28:23;8.83;;;7.80;;
66189;SDS011;52992;52.084;5.412;2023-03-14T03:30:51;12.90;;;10.10;;
66189;SDS011;52992;52.084;5.412;2023-03-14T03:33:18;8.77;;;7.83;;
66189;SDS011;52992;52.084;5.412;2023-03-14T03:35:45;8.30;;;7.00;;
66189;SDS011;52992;52.084;5.412;2023-03-14T03:38:18;12.73;;;7.97;;
66189;SDS011;52992;52.084;5.412;2023-03-14T03:40:48;10.20;;;6.83;;
66189;SDS011;52992;52.084;5.412;2023-03-14T03:43:16;8.00;;;7.20;;
66189;SDS011;52992;52.084;5.412;2023-03-14T03:45:45;7.67;;;6.83;;
66189;SDS011;52992;52.084;5.412;2023-03-14T03:48:12;10.13;;;6.93;;
66189;SDS011;52992;52.084;5.412;2023-03-14T03:50:43;10.00;;;7.47;;
66189;SDS011;52992;52.084;5.412;2023-03-14T03:53:17;8.57;;;7.83;;
66189;SDS011;52992;52.084;5.412;2023-03-14T03:56:00;12.47;;;7.83;;
66189;SDS011;52992;52.084;5.412;2023-03-14T03:58:27;14.57;;;7.70;;
66189;SDS011;52992;52.084;5.412;2023-03-14T04:00:55;7.63;;;7.00;;
66189;SDS011;52992;52.084;5.412;2023-03-14T04:03:22;12.10;;;7.43;;
66189;SDS011;52992;52.084;5.412;2023-03-14T04:06:03;7.80;;;7.00;;
66189;SDS011;52992;52.084;5.412;2023-03-14T04:08:35;7.60;;;6.63;;
66189;SDS011;52992;52.084;5.412;2023-03-14T04:11:02;8.63;;;6.70;;
66189;SDS011;52992;52.084;5.412;2023-03-14T04:13:51;8.00;;;7.20;;
66189;SDS011;52992;52.084;5.412;2023-03-14T04:16:19;8.17;;;6.90;;
66189;SDS011;52992;52.084;5.412;2023-03-14T04:18:50;7.77;;;7.10;;
66189;SDS011;52992;52.084;5.412;2023-03-14T04:21:20;7.90;;;7.20;;
66189;SDS011;52992;52.084;5.412;2023-03-14T04:23:51;7.80;;;7.17;;
66189;SDS011;52992;52.084;5.412;2023-03-14T04:26:19;9.70;;;7.23;;
66189;SDS011;52992;52.084;5.412;2023-03-14T04:28:46;11.03;;;8.00;;
66189;SDS011;52992;52.084;5.412;2023-03-14T04:31:17;13.37;;;7.50;;
66189;SDS011;52992;52.084;5.412;2023-03-14T04:33:46;8.90;;;7.83;;
66189;SDS011;52992;52.084;5.412;2023-03-14T04:36:17;8.83;;;7.93;;
66189;SDS011;52992;52.084;5.412;2023-03-14T04:38:44;9.93;;;7.97;;
66189;SDS011;52992;52.084;5.412;2023-03-14T04:41:13;8.50;;;7.80;;
66189;SDS011;52992;52.084;5.412;2023-03-14T04:43:40;8.53;;;7.77;;
66189;SDS011;52992;52.084;5.412;2023-03-14T04:46:09;10.00;;;9.00;;
66189;SDS011;52992;52.084;5.412;2023-03-14T04:48:37;12.20;;;8.33;;
66189;SDS011;52992;52.084;5.412;2023-03-14T04:51:05;8.67;;;7.97;;
66189;SDS011;52992;52.084;5.412;2023-03-14T04:53:33;9.83;;;8.90;;
66189;SDS011;52992;52.084;5.412;2023-03-14T04:56:03;9.30;;;8.60;;
66189;SDS011;52992;52.084;5.412;2023-03-14T04:58:36;8.70;;;7.97;;
66189;SDS011;52992;52.084;5.412;2023-03-14T05:01:04;8.60;;;7.80;;
66189;SDS011;52992;52.084;5.412;2023-03-14T05:03:43;8.07;;;7.37;;
66189;SDS011;52992;52.084;5.412;2023-03-14T05:06:19;8.40;;;7.30;;
66189;SDS011;52992;52.084;5.412;2023-03-14T05:09:09;11.07;;;8.07;;
66189;SDS011;52992;52.084;5.412;2023-03-14T05:11:51;9.03;;;7.40;;
66189;SDS011;52992;52.084;5.412;2023-03-14T05:14:41;7.90;;;7.20;;
66189;SDS011;52992;52.084;5.412;2023-03-14T05:17:23;10.57;;;8.20;;
66189;SDS011;52992;52.084;5.412;2023-03-14T05:20:16;9.50;;;7.70;;
66189;SDS011;52992;52.084;5.412;2023-03-14T05:22:59;7.77;;;7.10;;
66189;SDS011;52992;52.084;5.412;2023-03-14T05:25:47;8.27;;;7.23;;
66189;SDS011;52992;52.084;5.412;2023-03-14T05:28:32;8.33;;;7.73;;
66189;SDS011;52992;52.084;5.412;2023-03-14T05:31:12;9.47;;;8.40;;
66189;SDS011;52992;52.084;5.412;2023-03-14T05:33:51;9.27;;;8.37;;
66189;SDS011;52992;52.084;5.412;2023-03-14T05:36:47;8.57;;;7.73;;
66189;SDS011;52992;52.084;5.412;2023-03-14T05:39:33;10.07;;;8.13;;
66189;SDS011;52992;52.084;5.412;2023-03-14T05:42:19;11.17;;;7.27;;
66189;SDS011;52992;52.084;5.412;2023-03-14T05:44:56;11.00;;;7.80;;
66189;SDS011;52992;52.084;5.412;2023-03-14T05:47:55;8.40;;;7.70;;
66189;SDS011;52992;52.084;5.412;2023-03-14T05:50:34;10.10;;;8.37;;
66189;SDS011;52992;52.084;5.412;2023-03-14T05:53:24;13.10;;;8.30;;
66189;SDS011;52992;52.084;5.412;2023-03-14T05:56:09;9.33;;;7.77;;
66189;SDS011;52992;52.084;5.412;2023-03-14T05:58:45;10.77;;;8.90;;
66189;SDS011;52992;52.084;5.412;2023-03-14T06:01:23;8.30;;;7.50;;
66189;SDS011;52992;52.084;5.412;2023-03-14T06:04:16;9.90;;;8.90;;
66189;SDS011;52992;52.084;5.412;2023-03-14T06:06:48;9.17;;;8.47;;
66189;SDS011;52992;52.084;5.412;2023-03-14T06:09:15;9.67;;;8.97;;
66189;SDS011;52992;52.084;5.412;2023-03-14T06:11:42;10.50;;;9.47;;
66189;SDS011;52992;52.084;5.412;2023-03-14T06:14:10;11.10;;;9.93;;
66189;SDS011;52992;52.084;5.412;2023-03-14T06:16:41;12.93;;;10.23;;
66189;SDS011;52992;52.084;5.412;2023-03-14T06:19:08;11.33;;;10.17;;
66189;SDS011;52992;52.084;5.412;2023-03-14T06:21:36;11.70;;;10.67;;
66189;SDS011;52992;52.084;5.412;2023-03-14T06:24:03;11.27;;;10.20;;
66189;SDS011;52992;52.084;5.412;2023-03-14T06:26:35;12.17;;;10.87;;
66189;SDS011;52992;52.084;5.412;2023-03-14T06:29:02;10.90;;;10.00;;
66189;SDS011;52992;52.084;5.412;2023-03-14T06:31:31;11.47;;;10.37;;
66189;SDS011;52992;52.084;5.412;2023-03-14T06:34:01;12.03;;;11.03;;
66189;SDS011;52992;52.084;5.412;2023-03-14T06:36:30;14.00;;;12.13;;
66189;SDS011;52992;52.084;5.412;2023-03-14T06:38:57;12.90;;;11.47;;
66189;SDS011;52992;52.084;5.412;2023-03-14T06:41:26;13.87;;;12.53;;
66189;SDS011;52992;52.084;5.412;2023-03-14T06:43:53;11.57;;;10.47;;
66189;SDS011;52992;52.084;5.412;2023-03-14T06:46:21;10.23;;;9.30;;
66189;SDS011;52992;52.084;5.412;2023-03-14T06:48:49;9.67;;;9.00;;
66189;SDS011;52992;52.084;5.412;2023-03-14T06:51:16;8.73;;;8.03;;
66189;SDS011;52992;52.084;5.412;2023-03-14T06:53:43;7.67;;;7.17;;
66189;SDS011;52992;52.084;5.412;2023-03-14T06:56:13;7.73;;;7.33;;
66189;SDS011;52992;52.084;5.412;2023-03-14T06:58:40;7.23;;;6.83;;
66189;SDS011;52992;52.084;5.412;2023-03-14T07:01:43;7.10;;;6.80;;
66189;SDS011;52992;52.084;5.412;2023-03-14T07:04:09;7.60;;;7.27;;
66189;SDS011;52992;52.084;5.412;2023-03-14T07:06:40;7.70;;;7.00;;
66189;SDS011;52992;52.084;5.412;2023-03-14T07:09:11;7.63;;;7.07;;
66189;SDS011;52992;52.084;5.412;2023-03-14T07:11:43;7.47;;;7.17;;
66189;SDS011;52992;52.084;5.412;2023-03-14T07:14:10;7.57;;;7.17;;
66189;SDS011;52992;52.084;5.412;2023-03-14T07:16:37;7.60;;;7.20;;
66189;SDS011;52992;52.084;5.412;2023-03-14T07:19:06;7.80;;;7.10;;
66189;SDS011;52992;52.084;5.412;2023-03-14T07:21:33;7.57;;;7.07;;
66189;SDS011;52992;52.084;5.412;2023-03-14T07:24:05;7.70;;;7.20;;
66189;SDS011;52992;52.084;5.412;2023-03-14T07:26:32;8.43;;;7.67;;
66189;SDS011;52992;52.084;5.412;2023-03-14T07:28:59;7.97;;;7.57;;
66189;SDS011;52992;52.084;5.412;2023-03-14T07:31:26;8.80;;;8.23;;
66189;SDS011;52992;52.084;5.412;2023-03-14T07:33:53;7.73;;;6.93;;
66189;SDS011;52992;52.084;5.412;2023-03-14T07:36:21;7.63;;;7.03;;
66189;SDS011;52992;52.084;5.412;2023-03-14T07:38:48;7.63;;;7.13;;
66189;SDS011;52992;52.084;5.412;2023-03-14T07:41:27;7.67;;;7.27;;
66189;SDS011;52992;52.084;5.412;2023-03-14T07:44:12;7.23;;;6.83;;
66189;SDS011;52992;52.084;5.412;2023-03-14T07:46:40;7.20;;;6.80;;
66189;SDS011;52992;52.084;5.412;2023-03-14T07:49:06;7.47;;;6.77;;
66189;SDS011;52992;52.084;5.412;2023-03-14T07:51:33;7.73;;;7.13;;
66189;SDS011;52992;52.084;5.412;2023-03-14T07:54:00;7.03;;;6.70;;
66189;SDS011;52992;52.084;5.412;2023-03-14T07:56:27;7.70;;;6.93;;
66189;SDS011;52992;52.084;5.412;2023-03-14T07:58:54;7.03;;;6.73;;
66189;SDS011;52992;52.084;5.412;2023-03-14T08:01:21;7.67;;;6.93;;
66189;SDS011;52992;52.084;5.412;2023-03-14T08:03:48;7.30;;;7.00;;
66189;SDS011;52992;52.084;5.412;2023-03-14T08:06:14;6.90;;;6.50;;
66189;SDS011;52992;52.084;5.412;2023-03-14T08:08:41;7.53;;;6.83;;
66189;SDS011;52992;52.084;5.412;2023-03-14T08:11:08;7.83;;;6.80;;
66189;SDS011;52992;52.084;5.412;2023-03-14T08:13:36;7.97;;;7.27;;
66189;SDS011;52992;52.084;5.412;2023-03-14T08:16:04;9.23;;;8.37;;
66189;SDS011;52992;52.084;5.412;2023-03-14T08:18:31;9.00;;;8.20;;
66189;SDS011;52992;52.084;5.412;2023-03-14T08:20:58;8.20;;;7.57;;
66189;SDS011;52992;52.084;5.412;2023-03-14T08:23:25;11.83;;;8.87;;
66189;SDS011;52992;52.084;5.412;2023-03-14T08:25:52;8.57;;;8.07;;
66189;SDS011;52992;52.084;5.412;2023-03-14T08:28:19;9.67;;;8.33;;
66189;SDS011;52992;52.084;5.412;2023-03-14T08:30:45;8.67;;;8.10;;
66189;SDS011;52992;52.084;5.412;2023-03-14T08:33:13;9.70;;;8.77;;
66189;SDS011;52992;52.084;5.412;2023-03-14T08:35:40;8.73;;;7.97;;
66189;SDS011;52992;52.084;5.412;2023-03-14T08:38:07;9.00;;;8.40;;
66189;SDS011;52992;52.084;5.412;2023-03-14T08:40:35;8.70;;;8.10;;
66189;SDS011;52992;52.084;5.412;2023-03-14T08:43:01;9.00;;;8.27;;
66189;SDS011;52992;52.084;5.412;2023-03-14T08:45:28;8.60;;;8.17;;
66189;SDS011;52992;52.084;5.412;2023-03-14T08:47:55;9.27;;;8.77;;
66189;SDS011;52992;52.084;5.412;2023-03-14T08:50:23;8.60;;;8.17;;
66189;SDS011;52992;52.084;5.412;2023-03-14T08:52:50;8.70;;;8.27;;
66189;SDS011;52992;52.084;5.412;2023-03-14T08:55:17;8.77;;;8.27;;
66189;SDS011;52992;52.084;5.412;2023-03-14T08:57:44;8.77;;;7.97;;
66189;SDS011;52992;52.084;5.412;2023-03-14T09:00:12;8.43;;;7.93;;
66189;SDS011;52992;52.084;5.412;2023-03-14T09:02:41;8.10;;;7.80;;
66189;SDS011;52992;52.084;5.412;2023-03-14T09:05:09;10.17;;;9.27;;
66189;SDS011;52992;52.084;5.412;2023-03-14T09:07:37;10.13;;;9.20;;
66189;SDS011;52992;52.084;5.412;2023-03-14T09:10:04;10.67;;;10.00;;
66189;SDS011;52992;52.084;5.412;2023-03-14T09:12:32;10.70;;;9.83;;
66189;SDS011;52992;52.084;5.412;2023-03-14T09:14:59;10.03;;;9.20;;
66189;SDS011;52992;52.084;5.412;2023-03-14T09:17:26;10.37;;;9.30;;
66189;SDS011;52992;52.084;5.412;2023-03-14T09:19:53;11.77;;;10.83;;
66189;SDS011;52992;52.084;5.412;2023-03-14T09:22:19;10.40;;;9.60;;
66189;SDS011;52992;52.084;5.412;2023-03-14T09:24:47;11.47;;;10.63;;
66189;SDS011;52992;52.084;5.412;2023-03-14T09:27:14;11.43;;;10.50;;
66189;SDS011;52992;52.084;5.412;2023-03-14T09:29:41;12.63;;;11.87;;
66189;SDS011;52992;52.084;5.412;2023-03-14T09:32:07;12.60;;;11.50;;
66189;SDS011;52992;52.084;5.412;2023-03-14T09:34:34;12.13;;;11.47;;
66189;SDS011;52992;52.084;5.412;2023-03-14T09:37:02;13.30;;;12.00;;
66189;SDS011;52992;52.084;5.412;2023-03-14T09:39:29;13.30;;;12.00;;
66189;SDS011;52992;52.084;5.412;2023-03-14T09:41:56;12.77;;;11.67;;
66189;SDS011;52992;52.084;5.412;2023-03-14T09:44:35;14.03;;;12.77;;
66189;SDS011;52992;52.084;5.412;2023-03-14T09:47:06;12.67;;;11.50;;
66189;SDS011;52992;52.084;5.412;2023-03-14T09:49:37;12.53;;;11.37;;
66189;SDS011;52992;52.084;5.412;2023-03-14T09:52:11;19.30;;;11.70;;
66189;SDS011;52992;52.084;5.412;2023-03-14T09:54:45;14.90;;;12.67;;
66189;SDS011;52992;52.084;5.412;2023-03-14T09:57:17;13.67;;;10.90;;
66189;SDS011;52992;52.084;5.412;2023-03-14T09:59:45;14.10;;;12.30;;
66189;SDS011;52992;52.084;5.412;2023-03-14T10:02:19;13.77;;;11.47;;
66189;SDS011;52992;52.084;5.412;2023-03-14T10:04:48;13.73;;;11.97;;
66189;SDS011;52992;52.084;5.412;2023-03-14T10:07:25;15.57;;;11.40;;
66189;SDS011;52992;52.084;5.412;2023-03-14T10:09:55;14.17;;;11.40;;
66189;SDS011;52992;52.084;5.412;2023-03-14T10:12:32;16.93;;;12.37;;
66189;SDS011;52992;52.084;5.412;2023-03-14T10:15:05;39.13;;;22.37;;
66189;SDS011;52992;52.084;5.412;2023-03-14T10:17:38;15.53;;;14.03;;
66189;SDS011;52992;52.084;5.412;2023-03-14T10:20:25;14.67;;;13.57;;
66189;SDS011;52992;52.084;5.412;2023-03-14T10:22:59;15.00;;;13.83;;
66189;SDS011;52992;52.084;5.412;2023-03-14T10:25:32;14.47;;;13.37;;
66189;SDS011;52992;52.084;5.412;2023-03-14T10:28:01;15.07;;;13.97;;
66189;SDS011;52992;52.084;5.412;2023-03-14T10:30:33;18.00;;;14.40;;
66189;SDS011;52992;52.084;5.412;2023-03-14T10:38:32;15.33;;;13.87;;
66189;SDS011;52992;52.084;5.412;2023-03-14T10:41:00;15.10;;;13.60;;
66189;SDS011;52992;52.084;5.412;2023-03-14T10:43:31;17.40;;;13.67;;
66189;SDS011;52992;52.084;5.412;2023-03-14T10:46:08;14.43;;;13.37;;
66189;SDS011;52992;52.084;5.412;2023-03-14T10:48:58;17.80;;;14.10;;
66189;SDS011;52992;52.084;5.412;2023-03-14T10:51:29;16.23;;;14.43;;
66189;SDS011;52992;52.084;5.412;2023-03-14T10:54:03;15.50;;;14.37;;
66189;SDS011;52992;52.084;5.412;2023-03-14T10:56:45;16.63;;;15.27;;
66189;SDS011;52992;52.084;5.412;2023-03-14T10:59:23;16.30;;;14.80;;
66189;SDS011;52992;52.084;5.412;2023-03-14T11:02:00;19.73;;;14.73;;
66189;SDS011;52992;52.084;5.412;2023-03-14T11:04:58;18.20;;;14.27;;
66189;SDS011;52992;52.084;5.412;2023-03-14T11:07:36;20.97;;;14.40;;
66189;SDS011;52992;52.084;5.412;2023-03-14T11:10:11;15.03;;;13.57;;
66189;SDS011;52992;52.084;5.412;2023-03-14T11:15:38;20.20;;;13.55;;
66189;SDS011;52992;52.084;5.412;2023-03-14T11:23:23;19.43;;;17.57;;
66189;SDS011;52992;52.084;5.412;2023-03-14T11:26:01;19.40;;;17.63;;
66189;SDS011;52992;52.084;5.412;2023-03-14T11:28:36;57.93;;;30.60;;
66189;SDS011;52992;52.084;5.412;2023-03-14T11:31:50;13.37;;;12.07;;
66189;SDS011;52992;52.084;5.412;2023-03-14T11:36:33;13.57;;;11.47;;
66189;SDS011;52992;52.084;5.412;2023-03-14T11:39:11;14.03;;;11.63;;
66189;SDS011;52992;52.084;5.412;2023-03-14T11:41:47;11.10;;;10.20;;
66189;SDS011;52992;52.084;5.412;2023-03-14T11:46:55;15.93;;;12.13;;
66189;SDS011;52992;52.084;5.412;2023-03-14T11:49:50;12.33;;;10.97;;
66189;SDS011;52992;52.084;5.412;2023-03-14T11:52:41;13.40;;;12.00;;
66189;SDS011;52992;52.084;5.412;2023-03-14T11:55:27;17.63;;;11.53;;
66189;SDS011;52992;52.084;5.412;2023-03-14T11:58:00;11.17;;;10.07;;
66189;SDS011;52992;52.084;5.412;2023-03-14T12:00:34;11.87;;;10.67;;
66189;SDS011;52992;52.084;5.412;2023-03-14T12:03:13;11.30;;;10.30;;
66189;SDS011;52992;52.084;5.412;2023-03-14T12:09:02;11.67;;;10.00;;
66189;SDS011;52992;52.084;5.412;2023-03-14T12:11:32;11.00;;;10.20;;
66189;SDS011;52992;52.084;5.412;2023-03-14T12:14:16;10.90;;;9.80;;
66189;SDS011;52992;52.084;5.412;2023-03-14T12:16:58;11.83;;;9.17;;
66189;SDS011;52992;52.084;5.412;2023-03-14T12:19:31;10.50;;;9.60;;
66189;SDS011;52992;52.084;5.412;2023-03-14T12:24:45;10.13;;;9.23;;
66189;SDS011;52992;52.084;5.412;2023-03-14T12:27:40;11.97;;;9.93;;
66189;SDS011;52992;52.084;5.412;2023-03-14T12:30:18;9.57;;;8.67;;
66189;SDS011;52992;52.084;5.412;2023-03-14T12:38:04;11.23;;;10.10;;
66189;SDS011;52992;52.084;5.412;2023-03-14T12:40:37;11.50;;;10.63;;
66189;SDS011;52992;52.084;5.412;2023-03-14T12:43:24;14.60;;;10.47;;
66189;SDS011;52992;52.084;5.412;2023-03-14T12:46:19;11.17;;;10.37;;
66189;SDS011;52992;52.084;5.412;2023-03-14T12:54:09;9.80;;;9.10;;
66189;SDS011;52992;52.084;5.412;2023-03-14T12:59:54;11.67;;;10.53;;
66189;SDS011;52992;52.084;5.412;2023-03-14T13:05:10;13.83;;;9.40;;
66189;SDS011;52992;52.084;5.412;2023-03-14T13:10:25;11.93;;;10.73;;
66189;SDS011;52992;52.084;5.412;2023-03-14T13:12:54;11.53;;;10.43;;
66189;SDS011;52992;52.084;5.412;2023-03-14T13:15:48;11.40;;;10.30;;
66189;SDS011;52992;52.084;5.412;2023-03-14T13:18:36;10.70;;;9.77;;
66189;SDS011;52992;52.084;5.412;2023-03-14T13:21:12;11.10;;;10.43;;
66189;SDS011;52992;52.084;5.412;2023-03-14T13:24:05;11.07;;;10.27;;
66189;SDS011;52992;52.084;5.412;2023-03-14T13:26:44;11.63;;;10.73;;
66189;SDS011;52992;52.084;5.412;2023-03-14T13:29:22;10.70;;;9.80;;
66189;SDS011;52992;52.084;5.412;2023-03-14T13:31:49;10.80;;;10.00;;
66189;SDS011;52992;52.084;5.412;2023-03-14T13:34:18;10.40;;;9.60;;
66189;SDS011;52992;52.084;5.412;2023-03-14T13:36:45;10.67;;;10.03;;
66189;SDS011;52992;52.084;5.412;2023-03-14T13:39:19;10.80;;;10.00;;
66189;SDS011;52992;52.084;5.412;2023-03-14T13:41:58;11.40;;;10.27;;
66189;SDS011;52992;52.084;5.412;2023-03-14T13:44:33;10.80;;;10.10;;
66189;SDS011;52992;52.084;5.412;2023-03-14T13:47:02;11.07;;;10.17;;
66189;SDS011;52992;52.084;5.412;2023-03-14T13:49:31;10.43;;;9.83;;
66189;SDS011;52992;52.084;5.412;2023-03-14T13:52:02;10.53;;;9.57;;
66189;SDS011;52992;52.084;5.412;2023-03-14T13:54:30;10.67;;;9.80;;
66189;SDS011;52992;52.084;5.412;2023-03-14T13:57:01;10.23;;;9.50;;
66189;SDS011;52992;52.084;5.412;2023-03-14T13:59:31;10.30;;;9.70;;
66189;SDS011;52992;52.084;5.412;2023-03-14T14:02:02;10.47;;;9.47;;
66189;SDS011;52992;52.084;5.412;2023-03-14T14:04:36;10.80;;;9.90;;
66189;SDS011;52992;52.084;5.412;2023-03-14T14:07:07;11.00;;;10.10;;
66189;SDS011;52992;52.084;5.412;2023-03-14T14:09:39;11.03;;;10.03;;
66189;SDS011;52992;52.084;5.412;2023-03-14T14:14:57;12.03;;;10.97;;
66189;SDS011;52992;52.084;5.412;2023-03-14T14:17:38;11.93;;;11.10;;
66189;SDS011;52992;52.084;5.412;2023-03-14T14:20:57;12.60;;;11.60;;
66189;SDS011;52992;52.084;5.412;2023-03-14T14:23:02;13.03;;;11.97;;
66189;SDS011;52992;52.084;5.412;2023-03-14T14:25:56;13.27;;;11.83;;
66189;SDS011;52992;52.084;5.412;2023-03-14T14:31:15;13.57;;;12.80;;
66189;SDS011;52992;52.084;5.412;2023-03-14T14:39:17;13.23;;;12.33;;
66189;SDS011;52992;52.084;5.412;2023-03-14T14:41:48;15.47;;;13.93;;
66189;SDS011;52992;52.084;5.412;2023-03-14T14:44:17;14.27;;;13.37;;
66189;SDS011;52992;52.084;5.412;2023-03-14T14:46:51;14.67;;;13.77;;
66189;SDS011;52992;52.084;5.412;2023-03-14T14:49:18;15.03;;;14.17;;
66189;SDS011;52992;52.084;5.412;2023-03-14T14:51:49;14.27;;;13.23;;
66189;SDS011;52992;52.084;5.412;2023-03-14T14:54:17;14.30;;;13.40;;
66189;SDS011;52992;52.084;5.412;2023-03-14T14:56:50;14.67;;;13.37;;
66189;SDS011;52992;52.084;5.412;2023-03-14T14:59:26;14.77;;;13.67;;
66189;SDS011;52992;52.084;5.412;2023-03-14T15:01:56;14.70;;;13.53;;
66189;SDS011;52992;52.084;5.412;2023-03-14T15:04:25;14.23;;;13.10;;
66189;SDS011;52992;52.084;5.412;2023-03-14T15:06:53;13.97;;;13.27;;
66189;SDS011;52992;52.084;5.412;2023-03-14T15:09:19;14.93;;;14.03;;
66189;SDS011;52992;52.084;5.412;2023-03-14T15:11:47;14.90;;;14.00;;
66189;SDS011;52992;52.084;5.412;2023-03-14T15:14:14;15.63;;;14.53;;
66189;SDS011;52992;52.084;5.412;2023-03-14T15:16:41;14.67;;;13.73;;
66189;SDS011;52992;52.084;5.412;2023-03-14T15:19:10;15.80;;;14.57;;
66189;SDS011;52992;52.084;5.412;2023-03-14T15:21:51;14.70;;;13.60;;
66189;SDS011;52992;52.084;5.412;2023-03-14T15:24:18;15.40;;;14.57;;
66189;SDS011;52992;52.084;5.412;2023-03-14T15:26:45;14.47;;;13.77;;
66189;SDS011;52992;52.084;5.412;2023-03-14T15:29:12;15.27;;;14.03;;
66189;SDS011;52992;52.084;5.412;2023-03-14T15:31:40;15.60;;;14.17;;
66189;SDS011;52992;52.084;5.412;2023-03-14T15:34:09;15.43;;;14.33;;
66189;SDS011;52992;52.084;5.412;2023-03-14T15:36:36;15.23;;;14.13;;
66189;SDS011;52992;52.084;5.412;2023-03-14T15:39:05;13.83;;;13.20;;
66189;SDS011;52992;52.084;5.412;2023-03-14T15:41:32;14.70;;;13.63;;
66189;SDS011;52992;52.084;5.412;2023-03-14T15:43:59;15.03;;;13.90;;
66189;SDS011;52992;52.084;5.412;2023-03-14T15:46:26;14.90;;;14.10;;
66189;SDS011;52992;52.084;5.412;2023-03-14T15:48:56;15.10;;;14.30;;
66189;SDS011;52992;52.084;5.412;2023-03-14T15:51:23;14.87;;;13.87;;
66189;SDS011;52992;52.084;5.412;2023-03-14T15:53:49;15.37;;;14.33;;
66189;SDS011;52992;52.084;5.412;2023-03-14T15:56:18;15.23;;;14.07;;
66189;SDS011;52992;52.084;5.412;2023-03-14T15:58:46;15.50;;;14.43;;
66189;SDS011;52992;52.084;5.412;2023-03-14T16:01:14;16.23;;;15.20;;
66189;SDS011;52992;52.084;5.412;2023-03-14T16:03:44;15.63;;;14.47;;